sensor_id;sensor_type;location;lat;lon;timestamp;temperature;humidity
41294;DHT22;27037;52.010;4.446;2024-02-16T00:00:53;12.20;99.90
41294;DHT22;27037;52.010;4.446;2024-02-16T00:03:19;12.20;99.90
41294;DHT22;27037;52.010;4.446;2024-02-16T00:05:46;12.20;99.90
41294;DHT22;27037;52.010;4.446;2024-02-16T00:08:11;12.20;99.90
41294;DHT22;27037;52.010;4.446;2024-02-16T00:10:38;12.10;99.90
41294;DHT22;27037;52.010;4.446;2024-02-16T00:13:04;12.10;99.90
41294;DHT22;27037;52.010;4.446;2024-02-16T00:15:29;12.10;99.90
41294;DHT22;27037;52.010;4.446;2024-02-16T00:17:55;12.10;99.90
41294;DHT22;27037;52.010;4.446;2024-02-16T00:20:20;12.10;99.90
41294;DHT22;27037;52.010;4.446;2024-02-16T00:22:47;12.10;99.90
41294;DHT22;27037;52.010;4.446;2024-02-16T00:25:13;12.00;99.90
41294;DHT22;27037;52.010;4.446;2024-02-16T00:27:40;12.00;99.90
41294;DHT22;27037;52.010;4.446;2024-02-16T00:30:07;12.00;99.90
41294;DHT22;27037;52.010;4.446;2024-02-16T00:32:32;12.00;99.90
41294;DHT22;27037;52.010;4.446;2024-02-16T00:34:58;12.00;99.90
41294;DHT22;27037;52.010;4.446;2024-02-16T00:37:24;11.90;99.90
41294;DHT22;27037;52.010;4.446;2024-02-16T00:39:50;11.90;99.90
41294;DHT22;27037;52.010;4.446;2024-02-16T00:42:15;11.90;99.90
41294;DHT22;27037;52.010;4.446;2024-02-16T00:44:41;11.90;99.90
41294;DHT22;27037;52.010;4.446;2024-02-16T00:47:06;11.90;99.90
41294;DHT22;27037;52.010;4.446;2024-02-16T00:49:32;11.80;99.90
41294;DHT22;27037;52.010;4.446;2024-02-16T00:51:59;11.80;99.90
41294;DHT22;27037;52.010;4.446;2024-02-16T00:54:24;11.80;99.90
41294;DHT22;27037;52.010;4.446;2024-02-16T00:56:50;11.80;99.90
41294;DHT22;27037;52.010;4.446;2024-02-16T00:59:16;11.80;99.90
41294;DHT22;27037;52.010;4.446;2024-02-16T01:01:42;11.80;99.90
41294;DHT22;27037;52.010;4.446;2024-02-16T01:04:07;11.80;99.90
41294;DHT22;27037;52.010;4.446;2024-02-16T01:06:33;11.80;99.90
41294;DHT22;27037;52.010;4.446;2024-02-16T01:08:59;11.80;99.90
41294;DHT22;27037;52.010;4.446;2024-02-16T01:11:25;11.70;99.90
41294;DHT22;27037;52.010;4.446;2024-02-16T01:13:52;11.70;99.90
41294;DHT22;27037;52.010;4.446;2024-02-16T01:16:17;11.80;99.90
41294;DHT22;27037;52.010;4.446;2024-02-16T01:18:44;11.80;99.90
41294;DHT22;27037;52.010;4.446;2024-02-16T01:21:10;11.80;99.90
41294;DHT22;27037;52.010;4.446;2024-02-16T01:23:36;11.80;99.90
41294;DHT22;27037;52.010;4.446;2024-02-16T01:26:01;11.80;99.90
41294;DHT22;27037;52.010;4.446;2024-02-16T01:28:27;11.70;99.90
41294;DHT22;27037;52.010;4.446;2024-02-16T01:30:52;11.70;99.90
41294;DHT22;27037;52.010;4.446;2024-02-16T01:33:19;11.70;99.90
41294;DHT22;27037;52.010;4.446;2024-02-16T01:35:45;11.70;99.90
41294;DHT22;27037;52.010;4.446;2024-02-16T01:38:11;11.60;99.90
41294;DHT22;27037;52.010;4.446;2024-02-16T01:40:37;11.70;99.90
41294;DHT22;27037;52.010;4.446;2024-02-16T01:43:03;11.60;99.90
41294;DHT22;27037;52.010;4.446;2024-02-16T01:45:28;11.60;99.90
41294;DHT22;27037;52.010;4.446;2024-02-16T01:47:54;11.60;99.90
41294;DHT22;27037;52.010;4.446;2024-02-16T01:50:20;11.60;99.90
41294;DHT22;27037;52.010;4.446;2024-02-16T01:52:48;11.60;99.90
41294;DHT22;27037;52.010;4.446;2024-02-16T01:55:15;11.60;99.90
41294;DHT22;27037;52.010;4.446;2024-02-16T01:57:43;11.60;99.90
41294;DHT22;27037;52.010;4.446;2024-02-16T02:00:09;11.60;99.90
41294;DHT22;27037;52.010;4.446;2024-02-16T02:02:35;11.50;99.90
41294;DHT22;27037;52.010;4.446;2024-02-16T02:05:01;11.50;99.90
41294;DHT22;27037;52.010;4.446;2024-02-16T02:07:27;11.50;99.90
41294;DHT22;27037;52.010;4.446;2024-02-16T02:09:53;11.50;99.90
41294;DHT22;27037;52.010;4.446;2024-02-16T02:12:19;11.50;99.90
41294;DHT22;27037;52.010;4.446;2024-02-16T02:14:45;11.50;99.90
41294;DHT22;27037;52.010;4.446;2024-02-16T02:17:12;11.60;99.90
41294;DHT22;27037;52.010;4.446;2024-02-16T02:19:37;11.60;99.90
41294;DHT22;27037;52.010;4.446;2024-02-16T02:22:03;11.60;99.90
41294;DHT22;27037;52.010;4.446;2024-02-16T02:24:29;11.60;99.90
41294;DHT22;27037;52.010;4.446;2024-02-16T02:26:54;11.60;99.90
41294;DHT22;27037;52.010;4.446;2024-02-16T02:29:20;11.50;99.90
41294;DHT22;27037;52.010;4.446;2024-02-16T02:31:46;11.50;99.90
41294;DHT22;27037;52.010;4.446;2024-02-16T02:34:11;11.50;99.90
41294;DHT22;27037;52.010;4.446;2024-02-16T02:36:37;11.50;99.90
41294;DHT22;27037;52.010;4.446;2024-02-16T02:39:03;11.50;99.90
41294;DHT22;27037;52.010;4.446;2024-02-16T02:41:28;11.50;99.90
41294;DHT22;27037;52.010;4.446;2024-02-16T02:43:54;11.40;99.90
41294;DHT22;27037;52.010;4.446;2024-02-16T02:46:20;11.40;99.90
41294;DHT22;27037;52.010;4.446;2024-02-16T02:48:50;11.40;99.90
41294;DHT22;27037;52.010;4.446;2024-02-16T02:51:15;11.40;99.90
41294;DHT22;27037;52.010;4.446;2024-02-16T02:53:41;11.40;99.90
41294;DHT22;27037;52.010;4.446;2024-02-16T02:56:06;11.30;99.90
41294;DHT22;27037;52.010;4.446;2024-02-16T02:58:32;11.30;99.90
41294;DHT22;27037;52.010;4.446;2024-02-16T03:00:58;11.30;99.90
41294;DHT22;27037;52.010;4.446;2024-02-16T03:03:24;11.30;99.90
41294;DHT22;27037;52.010;4.446;2024-02-16T03:05:50;11.30;99.90
41294;DHT22;27037;52.010;4.446;2024-02-16T03:08:15;11.30;99.90
41294;DHT22;27037;52.010;4.446;2024-02-16T03:10:41;11.30;99.90
41294;DHT22;27037;52.010;4.446;2024-02-16T03:13:07;11.30;99.90
41294;DHT22;27037;52.010;4.446;2024-02-16T03:15:34;11.30;99.90
41294;DHT22;27037;52.010;4.446;2024-02-16T03:18:01;11.30;99.90
41294;DHT22;27037;52.010;4.446;2024-02-16T03:20:27;11.30;99.90
41294;DHT22;27037;52.010;4.446;2024-02-16T03:22:52;11.30;99.90
41294;DHT22;27037;52.010;4.446;2024-02-16T03:25:18;11.30;99.90
41294;DHT22;27037;52.010;4.446;2024-02-16T03:27:44;11.40;99.90
41294;DHT22;27037;52.010;4.446;2024-02-16T03:30:10;11.40;99.90
41294;DHT22;27037;52.010;4.446;2024-02-16T03:32:36;11.40;99.90
41294;DHT22;27037;52.010;4.446;2024-02-16T03:35:01;11.30;99.90
41294;DHT22;27037;52.010;4.446;2024-02-16T03:37:27;11.40;99.90
41294;DHT22;27037;52.010;4.446;2024-02-16T03:39:53;11.40;99.90
41294;DHT22;27037;52.010;4.446;2024-02-16T03:42:19;11.40;99.90
41294;DHT22;27037;52.010;4.446;2024-02-16T03:44:45;11.40;99.90
41294;DHT22;27037;52.010;4.446;2024-02-16T03:47:11;11.30;99.90
41294;DHT22;27037;52.010;4.446;2024-02-16T03:49:38;11.30;99.90
41294;DHT22;27037;52.010;4.446;2024-02-16T03:52:04;11.30;99.90
41294;DHT22;27037;52.010;4.446;2024-02-16T03:54:30;11.30;99.90
41294;DHT22;27037;52.010;4.446;2024-02-16T03:56:56;11.20;99.90
41294;DHT22;27037;52.010;4.446;2024-02-16T03:59:23;11.20;99.90
41294;DHT22;27037;52.010;4.446;2024-02-16T04:01:49;11.20;99.90
41294;DHT22;27037;52.010;4.446;2024-02-16T04:04:15;11.20;99.90
41294;DHT22;27037;52.010;4.446;2024-02-16T04:06:41;11.20;99.90
41294;DHT22;27037;52.010;4.446;2024-02-16T04:09:07;11.20;99.90
41294;DHT22;27037;52.010;4.446;2024-02-16T04:11:33;11.20;99.90
41294;DHT22;27037;52.010;4.446;2024-02-16T04:13:59;11.20;99.90
41294;DHT22;27037;52.010;4.446;2024-02-16T04:16:25;11.20;99.90
41294;DHT22;27037;52.010;4.446;2024-02-16T04:18:51;11.20;99.90
41294;DHT22;27037;52.010;4.446;2024-02-16T04:21:18;11.30;99.90
41294;DHT22;27037;52.010;4.446;2024-02-16T04:23:44;11.30;99.90
41294;DHT22;27037;52.010;4.446;2024-02-16T04:26:09;11.30;99.90
41294;DHT22;27037;52.010;4.446;2024-02-16T04:28:35;11.30;99.90
41294;DHT22;27037;52.010;4.446;2024-02-16T04:31:01;11.30;99.90
41294;DHT22;27037;52.010;4.446;2024-02-16T04:33:27;11.30;99.90
41294;DHT22;27037;52.010;4.446;2024-02-16T04:35:53;11.30;99.90
41294;DHT22;27037;52.010;4.446;2024-02-16T04:38:18;11.30;99.90
41294;DHT22;27037;52.010;4.446;2024-02-16T04:40:45;11.30;99.90
41294;DHT22;27037;52.010;4.446;2024-02-16T04:43:11;11.30;99.90
41294;DHT22;27037;52.010;4.446;2024-02-16T04:45:37;11.30;99.90
41294;DHT22;27037;52.010;4.446;2024-02-16T04:48:03;11.30;99.90
41294;DHT22;27037;52.010;4.446;2024-02-16T04:50:31;11.30;99.90
41294;DHT22;27037;52.010;4.446;2024-02-16T04:52:57;11.30;99.90
41294;DHT22;27037;52.010;4.446;2024-02-16T04:55:22;11.20;99.90
41294;DHT22;27037;52.010;4.446;2024-02-16T04:57:48;11.20;99.90
41294;DHT22;27037;52.010;4.446;2024-02-16T05:00:14;11.20;99.90
41294;DHT22;27037;52.010;4.446;2024-02-16T05:02:40;11.20;99.90
41294;DHT22;27037;52.010;4.446;2024-02-16T05:05:05;11.20;99.90
41294;DHT22;27037;52.010;4.446;2024-02-16T05:07:31;11.20;99.90
41294;DHT22;27037;52.010;4.446;2024-02-16T05:09:57;11.20;99.90
41294;DHT22;27037;52.010;4.446;2024-02-16T05:12:24;11.20;99.90
41294;DHT22;27037;52.010;4.446;2024-02-16T05:14:50;11.30;99.90
41294;DHT22;27037;52.010;4.446;2024-02-16T05:17:16;11.20;99.90
41294;DHT22;27037;52.010;4.446;2024-02-16T05:19:41;11.20;99.90
41294;DHT22;27037;52.010;4.446;2024-02-16T05:22:07;11.30;99.90
41294;DHT22;27037;52.010;4.446;2024-02-16T05:24:33;11.30;99.90
41294;DHT22;27037;52.010;4.446;2024-02-16T05:26:59;11.30;99.90
41294;DHT22;27037;52.010;4.446;2024-02-16T05:29:25;11.30;99.90
41294;DHT22;27037;52.010;4.446;2024-02-16T05:31:52;11.40;99.90
41294;DHT22;27037;52.010;4.446;2024-02-16T05:34:18;11.40;99.90
41294;DHT22;27037;52.010;4.446;2024-02-16T05:36:43;11.40;99.90
41294;DHT22;27037;52.010;4.446;2024-02-16T05:39:10;11.40;99.90
41294;DHT22;27037;52.010;4.446;2024-02-16T05:41:46;11.40;99.90
41294;DHT22;27037;52.010;4.446;2024-02-16T05:44:12;11.50;99.90
41294;DHT22;27037;52.010;4.446;2024-02-16T05:46:37;11.50;99.90
41294;DHT22;27037;52.010;4.446;2024-02-16T05:49:04;11.50;99.90
41294;DHT22;27037;52.010;4.446;2024-02-16T05:51:39;11.50;99.90
41294;DHT22;27037;52.010;4.446;2024-02-16T05:54:06;11.60;99.90
41294;DHT22;27037;52.010;4.446;2024-02-16T05:56:33;11.60;99.90
41294;DHT22;27037;52.010;4.446;2024-02-16T05:59:00;11.70;99.90
41294;DHT22;27037;52.010;4.446;2024-02-16T06:01:25;11.70;99.90
41294;DHT22;27037;52.010;4.446;2024-02-16T06:03:53;11.80;99.90
41294;DHT22;27037;52.010;4.446;2024-02-16T06:06:18;11.90;99.90
41294;DHT22;27037;52.010;4.446;2024-02-16T06:08:44;11.90;99.90
41294;DHT22;27037;52.010;4.446;2024-02-16T06:11:10;11.90;99.90
41294;DHT22;27037;52.010;4.446;2024-02-16T06:13:35;12.00;99.90
41294;DHT22;27037;52.010;4.446;2024-02-16T06:16:01;12.00;99.90
41294;DHT22;27037;52.010;4.446;2024-02-16T06:18:29;12.00;99.90
41294;DHT22;27037;52.010;4.446;2024-02-16T06:20:55;12.10;99.90
41294;DHT22;27037;52.010;4.446;2024-02-16T06:23:21;12.10;99.90
41294;DHT22;27037;52.010;4.446;2024-02-16T06:25:46;12.10;99.90
41294;DHT22;27037;52.010;4.446;2024-02-16T06:28:12;12.10;99.90
41294;DHT22;27037;52.010;4.446;2024-02-16T06:30:37;12.10;99.90
41294;DHT22;27037;52.010;4.446;2024-02-16T06:33:03;12.10;99.90
41294;DHT22;27037;52.010;4.446;2024-02-16T06:35:29;12.10;99.90
41294;DHT22;27037;52.010;4.446;2024-02-16T06:37:55;12.10;99.90
41294;DHT22;27037;52.010;4.446;2024-02-16T06:40:21;12.20;99.90
41294;DHT22;27037;52.010;4.446;2024-02-16T06:42:46;12.20;99.90
41294;DHT22;27037;52.010;4.446;2024-02-16T06:45:12;12.10;99.90
41294;DHT22;27037;52.010;4.446;2024-02-16T06:47:37;12.20;99.90
41294;DHT22;27037;52.010;4.446;2024-02-16T06:50:03;12.20;99.90
41294;DHT22;27037;52.010;4.446;2024-02-16T06:52:29;12.20;99.90
41294;DHT22;27037;52.010;4.446;2024-02-16T06:54:55;12.20;99.90
41294;DHT22;27037;52.010;4.446;2024-02-16T06:57:20;12.20;99.90
41294;DHT22;27037;52.010;4.446;2024-02-16T06:59:46;12.20;99.90
41294;DHT22;27037;52.010;4.446;2024-02-16T07:02:11;12.20;99.90
41294;DHT22;27037;52.010;4.446;2024-02-16T07:04:41;12.20;99.90
41294;DHT22;27037;52.010;4.446;2024-02-16T07:07:07;12.20;99.90
41294;DHT22;27037;52.010;4.446;2024-02-16T07:09:33;12.20;99.90
41294;DHT22;27037;52.010;4.446;2024-02-16T07:11:59;12.20;99.90
41294;DHT22;27037;52.010;4.446;2024-02-16T07:14:24;12.30;99.90
41294;DHT22;27037;52.010;4.446;2024-02-16T07:16:50;12.20;99.90
41294;DHT22;27037;52.010;4.446;2024-02-16T07:19:15;12.30;99.90
41294;DHT22;27037;52.010;4.446;2024-02-16T07:21:41;12.20;99.90
41294;DHT22;27037;52.010;4.446;2024-02-16T07:24:07;12.30;99.90
41294;DHT22;27037;52.010;4.446;2024-02-16T07:26:33;12.30;99.90
41294;DHT22;27037;52.010;4.446;2024-02-16T07:28:59;12.30;99.90
41294;DHT22;27037;52.010;4.446;2024-02-16T07:31:25;12.30;99.90
41294;DHT22;27037;52.010;4.446;2024-02-16T07:33:50;12.30;99.90
41294;DHT22;27037;52.010;4.446;2024-02-16T07:36:16;12.30;99.90
41294;DHT22;27037;52.010;4.446;2024-02-16T07:38:44;12.30;99.90
41294;DHT22;27037;52.010;4.446;2024-02-16T07:41:09;12.30;99.90
41294;DHT22;27037;52.010;4.446;2024-02-16T07:43:35;12.30;99.90
41294;DHT22;27037;52.010;4.446;2024-02-16T07:46:01;12.30;99.90
41294;DHT22;27037;52.010;4.446;2024-02-16T07:48:29;12.30;99.90
41294;DHT22;27037;52.010;4.446;2024-02-16T07:50:54;12.40;99.90
41294;DHT22;27037;52.010;4.446;2024-02-16T07:53:23;12.40;99.90
41294;DHT22;27037;52.010;4.446;2024-02-16T07:55:49;12.40;99.90
41294;DHT22;27037;52.010;4.446;2024-02-16T07:58:14;12.40;99.90
41294;DHT22;27037;52.010;4.446;2024-02-16T08:00:40;12.40;99.90
41294;DHT22;27037;52.010;4.446;2024-02-16T08:03:05;12.40;99.90
41294;DHT22;27037;52.010;4.446;2024-02-16T08:05:32;12.50;99.90
41294;DHT22;27037;52.010;4.446;2024-02-16T08:07:57;12.50;99.90
41294;DHT22;27037;52.010;4.446;2024-02-16T08:10:23;12.50;99.90
41294;DHT22;27037;52.010;4.446;2024-02-16T08:12:50;12.50;99.90
41294;DHT22;27037;52.010;4.446;2024-02-16T08:15:16;12.60;99.90
41294;DHT22;27037;52.010;4.446;2024-02-16T08:17:48;12.60;99.90
41294;DHT22;27037;52.010;4.446;2024-02-16T08:20:13;12.60;99.90
41294;DHT22;27037;52.010;4.446;2024-02-16T08:22:40;12.60;99.90
41294;DHT22;27037;52.010;4.446;2024-02-16T08:25:06;12.60;99.90
41294;DHT22;27037;52.010;4.446;2024-02-16T08:27:32;12.60;99.90
41294;DHT22;27037;52.010;4.446;2024-02-16T08:29:58;12.60;99.90
41294;DHT22;27037;52.010;4.446;2024-02-16T08:32:23;12.60;99.90
41294;DHT22;27037;52.010;4.446;2024-02-16T08:34:49;12.50;99.90
41294;DHT22;27037;52.010;4.446;2024-02-16T08:37:15;12.50;99.90
41294;DHT22;27037;52.010;4.446;2024-02-16T08:39:41;12.50;99.90
41294;DHT22;27037;52.010;4.446;2024-02-16T08:42:07;12.50;99.90
41294;DHT22;27037;52.010;4.446;2024-02-16T08:44:37;12.50;99.90
41294;DHT22;27037;52.010;4.446;2024-02-16T08:47:04;12.50;99.90
41294;DHT22;27037;52.010;4.446;2024-02-16T08:49:30;12.50;99.90
41294;DHT22;27037;52.010;4.446;2024-02-16T08:51:56;12.50;99.90
41294;DHT22;27037;52.010;4.446;2024-02-16T08:54:22;12.50;99.90
41294;DHT22;27037;52.010;4.446;2024-02-16T08:56:47;12.60;99.90
41294;DHT22;27037;52.010;4.446;2024-02-16T08:59:13;12.60;99.90
41294;DHT22;27037;52.010;4.446;2024-02-16T09:01:39;12.60;99.90
41294;DHT22;27037;52.010;4.446;2024-02-16T09:04:05;12.50;99.90
41294;DHT22;27037;52.010;4.446;2024-02-16T09:06:31;12.50;99.90
41294;DHT22;27037;52.010;4.446;2024-02-16T09:08:57;12.50;99.90
41294;DHT22;27037;52.010;4.446;2024-02-16T09:11:23;12.50;99.90
41294;DHT22;27037;52.010;4.446;2024-02-16T09:13:49;12.50;99.90
41294;DHT22;27037;52.010;4.446;2024-02-16T09:16:15;12.50;99.90
41294;DHT22;27037;52.010;4.446;2024-02-16T09:18:41;12.50;99.90
41294;DHT22;27037;52.010;4.446;2024-02-16T09:21:07;12.50;99.90
41294;DHT22;27037;52.010;4.446;2024-02-16T09:23:34;12.50;99.90
41294;DHT22;27037;52.010;4.446;2024-02-16T09:25:59;12.50;99.90
41294;DHT22;27037;52.010;4.446;2024-02-16T09:28:26;12.50;99.90
41294;DHT22;27037;52.010;4.446;2024-02-16T09:30:51;12.50;99.90
41294;DHT22;27037;52.010;4.446;2024-02-16T09:33:17;12.50;99.90
41294;DHT22;27037;52.010;4.446;2024-02-16T09:35:43;12.50;99.90
41294;DHT22;27037;52.010;4.446;2024-02-16T09:38:08;12.40;99.90
41294;DHT22;27037;52.010;4.446;2024-02-16T09:40:36;12.40;99.90
41294;DHT22;27037;52.010;4.446;2024-02-16T09:43:02;12.30;99.90
41294;DHT22;27037;52.010;4.446;2024-02-16T09:45:29;12.30;99.90
41294;DHT22;27037;52.010;4.446;2024-02-16T09:47:56;12.20;99.90
41294;DHT22;27037;52.010;4.446;2024-02-16T09:50:22;12.20;99.90
41294;DHT22;27037;52.010;4.446;2024-02-16T09:52:49;12.10;99.90
41294;DHT22;27037;52.010;4.446;2024-02-16T09:55:16;12.10;99.90
41294;DHT22;27037;52.010;4.446;2024-02-16T09:57:45;12.00;99.90
41294;DHT22;27037;52.010;4.446;2024-02-16T10:00:11;12.00;99.90
41294;DHT22;27037;52.010;4.446;2024-02-16T10:02:44;12.00;99.90
41294;DHT22;27037;52.010;4.446;2024-02-16T10:05:17;11.90;99.90
41294;DHT22;27037;52.010;4.446;2024-02-16T10:07:43;11.90;99.90
41294;DHT22;27037;52.010;4.446;2024-02-16T10:10:22;11.90;99.90
41294;DHT22;27037;52.010;4.446;2024-02-16T10:12:48;11.90;99.90
41294;DHT22;27037;52.010;4.446;2024-02-16T10:15:21;11.80;99.90
41294;DHT22;27037;52.010;4.446;2024-02-16T10:18:00;11.80;99.90
41294;DHT22;27037;52.010;4.446;2024-02-16T10:20:26;11.80;99.90
41294;DHT22;27037;52.010;4.446;2024-02-16T10:23:10;11.80;99.90
41294;DHT22;27037;52.010;4.446;2024-02-16T10:25:40;11.80;99.90
41294;DHT22;27037;52.010;4.446;2024-02-16T10:28:10;11.80;99.90
41294;DHT22;27037;52.010;4.446;2024-02-16T10:30:37;11.80;99.90
41294;DHT22;27037;52.010;4.446;2024-02-16T10:33:07;11.80;99.90
41294;DHT22;27037;52.010;4.446;2024-02-16T10:35:34;11.80;99.90
41294;DHT22;27037;52.010;4.446;2024-02-16T10:38:07;11.80;99.90
41294;DHT22;27037;52.010;4.446;2024-02-16T10:40:39;11.80;99.90
41294;DHT22;27037;52.010;4.446;2024-02-16T10:43:06;11.80;99.90
41294;DHT22;27037;52.010;4.446;2024-02-16T10:45:34;11.70;99.90
41294;DHT22;27037;52.010;4.446;2024-02-16T10:48:04;11.70;99.90
41294;DHT22;27037;52.010;4.446;2024-02-16T10:50:32;11.70;99.90
41294;DHT22;27037;52.010;4.446;2024-02-16T10:53:05;11.70;99.90
41294;DHT22;27037;52.010;4.446;2024-02-16T10:55:35;11.70;99.90
41294;DHT22;27037;52.010;4.446;2024-02-16T10:58:00;11.70;99.90
41294;DHT22;27037;52.010;4.446;2024-02-16T11:00:26;11.70;99.90
41294;DHT22;27037;52.010;4.446;2024-02-16T11:05:18;11.70;99.90
41294;DHT22;27037;52.010;4.446;2024-02-16T11:07:44;11.70;99.90
41294;DHT22;27037;52.010;4.446;2024-02-16T11:10:12;11.70;99.90
41294;DHT22;27037;52.010;4.446;2024-02-16T11:12:43;11.70;99.90
41294;DHT22;27037;52.010;4.446;2024-02-16T11:15:11;11.70;99.90
41294;DHT22;27037;52.010;4.446;2024-02-16T11:17:38;11.60;99.90
41294;DHT22;27037;52.010;4.446;2024-02-16T11:20:06;11.60;99.90
41294;DHT22;27037;52.010;4.446;2024-02-16T11:22:36;11.60;99.90
41294;DHT22;27037;52.010;4.446;2024-02-16T11:25:05;11.60;99.90
41294;DHT22;27037;52.010;4.446;2024-02-16T11:27:31;11.60;99.90
41294;DHT22;27037;52.010;4.446;2024-02-16T11:29:59;11.60;99.90
41294;DHT22;27037;52.010;4.446;2024-02-16T11:32:25;11.60;99.90
41294;DHT22;27037;52.010;4.446;2024-02-16T11:34:51;11.50;99.90
41294;DHT22;27037;52.010;4.446;2024-02-16T11:37:16;11.60;99.90
41294;DHT22;27037;52.010;4.446;2024-02-16T11:39:42;11.60;99.90
41294;DHT22;27037;52.010;4.446;2024-02-16T11:42:12;11.70;99.90
41294;DHT22;27037;52.010;4.446;2024-02-16T11:44:39;11.70;99.90
41294;DHT22;27037;52.010;4.446;2024-02-16T11:47:07;11.70;99.90
41294;DHT22;27037;52.010;4.446;2024-02-16T11:49:37;11.80;99.90
41294;DHT22;27037;52.010;4.446;2024-02-16T11:52:07;11.80;99.90
41294;DHT22;27037;52.010;4.446;2024-02-16T11:54:33;11.80;99.90
41294;DHT22;27037;52.010;4.446;2024-02-16T11:56:58;11.80;99.90
41294;DHT22;27037;52.010;4.446;2024-02-16T11:59:24;11.80;99.90
41294;DHT22;27037;52.010;4.446;2024-02-16T12:01:57;11.90;99.90
41294;DHT22;27037;52.010;4.446;2024-02-16T12:04:25;11.90;99.90
41294;DHT22;27037;52.010;4.446;2024-02-16T12:07:01;12.00;99.90
41294;DHT22;27037;52.010;4.446;2024-02-16T12:09:27;12.10;99.90
41294;DHT22;27037;52.010;4.446;2024-02-16T12:11:54;12.10;99.90
41294;DHT22;27037;52.010;4.446;2024-02-16T12:14:24;12.20;99.90
41294;DHT22;27037;52.010;4.446;2024-02-16T12:16:56;12.20;99.90
41294;DHT22;27037;52.010;4.446;2024-02-16T12:19:22;12.20;99.90
41294;DHT22;27037;52.010;4.446;2024-02-16T12:21:52;12.20;99.90
41294;DHT22;27037;52.010;4.446;2024-02-16T12:24:19;12.20;99.90
41294;DHT22;27037;52.010;4.446;2024-02-16T12:26:44;12.20;99.90
41294;DHT22;27037;52.010;4.446;2024-02-16T12:29:10;12.30;99.90
41294;DHT22;27037;52.010;4.446;2024-02-16T12:31:44;12.20;99.90
41294;DHT22;27037;52.010;4.446;2024-02-16T12:34:11;12.30;99.90
41294;DHT22;27037;52.010;4.446;2024-02-16T12:36:38;12.30;99.90
41294;DHT22;27037;52.010;4.446;2024-02-16T12:39:05;12.30;99.90
41294;DHT22;27037;52.010;4.446;2024-02-16T12:41:34;12.20;99.90
41294;DHT22;27037;52.010;4.446;2024-02-16T12:44:01;12.20;99.90
41294;DHT22;27037;52.010;4.446;2024-02-16T12:46:26;12.30;99.90
41294;DHT22;27037;52.010;4.446;2024-02-16T12:48:53;12.20;99.90
41294;DHT22;27037;52.010;4.446;2024-02-16T12:51:19;12.30;99.90
41294;DHT22;27037;52.010;4.446;2024-02-16T12:53:45;12.30;99.90
41294;DHT22;27037;52.010;4.446;2024-02-16T12:56:11;12.30;99.90
41294;DHT22;27037;52.010;4.446;2024-02-16T12:58:37;12.30;99.90
41294;DHT22;27037;52.010;4.446;2024-02-16T13:01:03;12.40;99.90
41294;DHT22;27037;52.010;4.446;2024-02-16T13:03:35;12.40;99.90
41294;DHT22;27037;52.010;4.446;2024-02-16T13:06:02;12.40;99.90
41294;DHT22;27037;52.010;4.446;2024-02-16T13:08:28;12.50;99.90
41294;DHT22;27037;52.010;4.446;2024-02-16T13:10:54;12.50;99.90
41294;DHT22;27037;52.010;4.446;2024-02-16T13:13:20;12.50;99.90
41294;DHT22;27037;52.010;4.446;2024-02-16T13:15:48;12.60;99.90
41294;DHT22;27037;52.010;4.446;2024-02-16T13:18:15;12.70;99.90
41294;DHT22;27037;52.010;4.446;2024-02-16T13:20:41;12.80;99.90
41294;DHT22;27037;52.010;4.446;2024-02-16T13:23:06;12.80;99.90
41294;DHT22;27037;52.010;4.446;2024-02-16T13:25:32;12.80;99.90
41294;DHT22;27037;52.010;4.446;2024-02-16T13:27:58;12.80;99.90
41294;DHT22;27037;52.010;4.446;2024-02-16T13:30:25;12.90;99.90
41294;DHT22;27037;52.010;4.446;2024-02-16T13:32:51;12.90;99.90
41294;DHT22;27037;52.010;4.446;2024-02-16T13:35:16;12.90;99.90
41294;DHT22;27037;52.010;4.446;2024-02-16T13:37:43;12.90;99.90
41294;DHT22;27037;52.010;4.446;2024-02-16T13:40:09;12.90;99.90
41294;DHT22;27037;52.010;4.446;2024-02-16T13:42:40;12.90;99.90
41294;DHT22;27037;52.010;4.446;2024-02-16T13:45:09;13.00;99.90
41294;DHT22;27037;52.010;4.446;2024-02-16T13:47:36;13.00;99.90
41294;DHT22;27037;52.010;4.446;2024-02-16T13:50:08;13.00;99.90
41294;DHT22;27037;52.010;4.446;2024-02-16T13:52:34;13.10;99.90
41294;DHT22;27037;52.010;4.446;2024-02-16T13:55:01;13.10;99.90
41294;DHT22;27037;52.010;4.446;2024-02-16T13:57:26;13.10;99.90
41294;DHT22;27037;52.010;4.446;2024-02-16T13:59:52;13.10;99.90
41294;DHT22;27037;52.010;4.446;2024-02-16T14:02:18;13.10;99.90
41294;DHT22;27037;52.010;4.446;2024-02-16T14:04:44;13.10;99.90
41294;DHT22;27037;52.010;4.446;2024-02-16T14:07:11;13.10;99.90
41294;DHT22;27037;52.010;4.446;2024-02-16T14:09:37;13.10;99.90
41294;DHT22;27037;52.010;4.446;2024-02-16T14:12:03;13.10;99.90
41294;DHT22;27037;52.010;4.446;2024-02-16T14:14:29;13.00;99.90
41294;DHT22;27037;52.010;4.446;2024-02-16T14:16:54;13.00;99.90
41294;DHT22;27037;52.010;4.446;2024-02-16T14:19:20;13.00;99.90
41294;DHT22;27037;52.010;4.446;2024-02-16T14:21:46;13.00;99.90
41294;DHT22;27037;52.010;4.446;2024-02-16T14:24:13;13.00;99.90
41294;DHT22;27037;52.010;4.446;2024-02-16T14:26:39;13.10;99.90
41294;DHT22;27037;52.010;4.446;2024-02-16T14:29:05;13.00;99.90
41294;DHT22;27037;52.010;4.446;2024-02-16T14:31:32;13.10;99.90
41294;DHT22;27037;52.010;4.446;2024-02-16T14:33:59;13.10;99.90
41294;DHT22;27037;52.010;4.446;2024-02-16T14:36:25;13.00;99.90
41294;DHT22;27037;52.010;4.446;2024-02-16T14:38:50;13.10;99.90
41294;DHT22;27037;52.010;4.446;2024-02-16T14:41:16;13.20;99.90
41294;DHT22;27037;52.010;4.446;2024-02-16T14:43:42;13.20;99.90
41294;DHT22;27037;52.010;4.446;2024-02-16T14:46:08;13.20;99.90
41294;DHT22;27037;52.010;4.446;2024-02-16T14:48:35;13.20;99.90
41294;DHT22;27037;52.010;4.446;2024-02-16T14:51:02;13.20;99.90
41294;DHT22;27037;52.010;4.446;2024-02-16T14:53:28;13.20;99.90
41294;DHT22;27037;52.010;4.446;2024-02-16T14:56:01;13.20;99.90
41294;DHT22;27037;52.010;4.446;2024-02-16T14:58:28;13.20;99.90
41294;DHT22;27037;52.010;4.446;2024-02-16T15:00:54;13.10;99.90
41294;DHT22;27037;52.010;4.446;2024-02-16T15:03:22;13.10;99.90
41294;DHT22;27037;52.010;4.446;2024-02-16T15:05:47;13.10;99.90
41294;DHT22;27037;52.010;4.446;2024-02-16T15:08:13;13.10;99.90
41294;DHT22;27037;52.010;4.446;2024-02-16T15:10:39;13.00;99.90
41294;DHT22;27037;52.010;4.446;2024-02-16T15:13:05;12.90;99.90
41294;DHT22;27037;52.010;4.446;2024-02-16T15:15:30;12.90;99.90
41294;DHT22;27037;52.010;4.446;2024-02-16T15:17:57;12.90;99.90
41294;DHT22;27037;52.010;4.446;2024-02-16T15:20:26;12.80;99.90
41294;DHT22;27037;52.010;4.446;2024-02-16T15:22:52;12.80;99.90
41294;DHT22;27037;52.010;4.446;2024-02-16T15:25:18;12.80;99.90
41294;DHT22;27037;52.010;4.446;2024-02-16T15:27:44;12.80;99.90